createdAt,value
2023-05-21T00:00:46.321Z,17.38
2023-05-21T00:03:49.970Z,15.50
2023-05-21T00:06:52.257Z,15.68
2023-05-21T00:09:54.971Z,15.93
2023-05-21T00:12:56.809Z,15.98
2023-05-21T00:16:00.161Z,16.63
2023-05-21T00:19:03.650Z,15.55
2023-05-21T00:22:05.813Z,18.33
2023-05-21T00:25:08.818Z,16.20
2023-05-21T00:28:11.646Z,15.90
2023-05-21T00:31:16.105Z,17.35
2023-05-21T00:34:18.229Z,15.80
2023-05-21T00:37:20.903Z,15.57
2023-05-21T00:40:22.796Z,15.70
2023-05-21T00:43:26.665Z,15.23
2023-05-21T00:46:30.391Z,15.63
2023-05-21T00:49:32.658Z,17.38
2023-05-21T00:52:41.664Z,16.17
2023-05-21T00:55:46.476Z,16.77
2023-05-21T00:58:48.731Z,16.17
2023-05-21T01:01:56.262Z,15.35
2023-05-21T01:05:00.421Z,16.00
2023-05-21T01:08:03.240Z,16.52
2023-05-21T01:11:06.529Z,14.88
2023-05-21T01:14:10.262Z,16.73
2023-05-21T01:17:14.152Z,15.63
2023-05-21T01:20:20.172Z,15.18
2023-05-21T01:23:23.609Z,15.10
2023-05-21T01:26:26.157Z,15.07
2023-05-21T01:29:28.639Z,16.50
2023-05-21T01:32:35.127Z,15.07
2023-05-21T01:35:41.953Z,15.38
2023-05-21T01:38:53.480Z,15.27
2023-05-21T01:41:56.468Z,16.08
2023-05-21T01:44:59.674Z,17.58
2023-05-21T01:48:03.641Z,15.88
2023-05-21T01:51:06.490Z,14.07
2023-05-21T01:54:09.811Z,15.25
2023-05-21T01:57:12.077Z,14.05
2023-05-21T02:00:15.174Z,15.27
2023-05-21T02:03:17.652Z,14.75
2023-05-21T02:06:20.398Z,15.55
2023-05-21T02:09:23.735Z,13.57
2023-05-21T02:12:25.982Z,16.08
2023-05-21T02:15:27.889Z,14.68
2023-05-21T02:18:29.702Z,14.00
2023-05-21T02:21:32.492Z,13.85
2023-05-21T02:24:35.721Z,15.13
2023-05-21T02:27:38.641Z,15.20
2023-05-21T02:30:41.347Z,15.55
2023-05-21T02:33:43.279Z,14.15
2023-05-21T02:36:48.506Z,14.60
2023-05-21T02:39:51.768Z,13.88
2023-05-21T02:42:55.543Z,14.88
2023-05-21T02:45:57.451Z,14.10
2023-05-21T02:48:59.406Z,15.77
2023-05-21T02:52:01.529Z,15.50
2023-05-21T02:55:05.553Z,14.23
2023-05-21T02:58:07.457Z,14.30
2023-05-21T03:01:10.369Z,13.85
2023-05-21T03:04:12.229Z,13.77
2023-05-21T03:07:15.187Z,15.13
2023-05-21T03:10:18.520Z,14.23
2023-05-21T03:13:20.464Z,13.75
2023-05-21T03:16:23.334Z,13.95
2023-05-21T03:19:25.414Z,14.25
2023-05-21T03:22:28.277Z,14.48
2023-05-21T03:25:31.664Z,14.60
2023-05-21T03:28:34.991Z,14.38
2023-05-21T03:31:36.921Z,14.23
2023-05-21T03:34:39.184Z,14.27
2023-05-21T03:37:41.130Z,12.77
2023-05-21T03:40:44.627Z,15.13
2023-05-21T03:43:46.461Z,13.57
2023-05-21T03:46:48.268Z,14.23
2023-05-21T03:49:52.663Z,13.68
2023-05-21T03:52:54.448Z,14.65
2023-05-21T03:55:57.651Z,14.38
2023-05-21T03:58:59.452Z,14.70
2023-05-21T04:02:01.378Z,12.25
2023-05-21T04:05:05.172Z,14.27
2023-05-21T04:08:07.371Z,14.27
2023-05-21T04:11:11.455Z,12.30
2023-05-21T04:14:13.312Z,13.85
2023-05-21T04:17:15.223Z,13.18
2023-05-21T04:20:18.549Z,12.73
2023-05-21T04:23:23.600Z,14.57
2023-05-21T04:26:28.150Z,14.02
2023-05-21T04:29:30.259Z,11.82
2023-05-21T04:32:33.476Z,13.55
2023-05-21T04:35:36.227Z,12.82
2023-05-21T04:38:39.921Z,13.13
2023-05-21T04:41:43.167Z,12.05
2023-05-21T04:44:46.056Z,12.35
2023-05-21T04:47:48.070Z,13.13
2023-05-21T04:50:50.020Z,11.88
2023-05-21T04:53:52.111Z,12.90
2023-05-21T04:56:55.414Z,12.98
2023-05-21T04:59:58.064Z,13.20
2023-05-21T05:03:00.169Z,12.75
2023-05-21T05:06:04.493Z,11.20
2023-05-21T05:09:06.357Z,12.05
2023-05-21T05:12:09.653Z,13.30
2023-05-21T05:15:13.813Z,12.68
2023-05-21T05:18:16.487Z,13.05
2023-05-21T05:21:18.382Z,13.20
2023-05-21T05:24:21.020Z,11.48
2023-05-21T05:27:24.328Z,12.20
2023-05-21T05:30:26.943Z,12.20
2023-05-21T05:33:28.752Z,11.73
2023-05-21T05:36:31.674Z,10.45
2023-05-21T05:39:33.686Z,12.77
2023-05-21T05:42:37.363Z,11.60
2023-05-21T05:45:39.443Z,13.15
2023-05-21T05:48:41.900Z,11.63
2023-05-21T05:51:43.716Z,13.02
2023-05-21T05:54:46.114Z,12.60
2023-05-21T05:57:49.312Z,11.43
2023-05-21T06:00:52.501Z,10.93
2023-05-21T06:03:54.476Z,12.70
2023-05-21T06:06:57.661Z,11.85
2023-05-21T06:10:02.162Z,11.40
2023-05-21T06:13:06.309Z,11.18
2023-05-21T06:16:10.014Z,10.90
2023-05-21T06:19:12.848Z,11.80
2023-05-21T06:22:14.796Z,11.90
2023-05-21T06:25:16.759Z,10.65
2023-05-21T06:28:20.175Z,10.48
2023-05-21T06:31:22.592Z,9.48
2023-05-21T06:34:24.482Z,11.13
2023-05-21T06:37:26.737Z,10.63
2023-05-21T06:40:28.668Z,10.23
2023-05-21T06:43:32.147Z,10.85
2023-05-21T06:46:34.871Z,9.95
2023-05-21T06:49:37.925Z,10.18
2023-05-21T06:52:39.843Z,10.52
2023-05-21T06:55:44.403Z,9.95
2023-05-21T06:58:47.722Z,10.70
2023-05-21T07:01:49.755Z,9.52
2023-05-21T07:04:53.739Z,10.75
2023-05-21T07:07:55.734Z,10.13
2023-05-21T07:10:57.633Z,9.32
2023-05-21T07:14:02.148Z,9.60
2023-05-21T07:17:04.471Z,10.25
2023-05-21T07:20:08.470Z,10.05
2023-05-21T07:23:10.452Z,10.40
2023-05-21T07:26:12.380Z,10.05
2023-05-21T07:29:16.082Z,10.27
2023-05-21T07:32:17.894Z,10.38
2023-05-21T07:35:20.210Z,9.48
2023-05-21T07:38:22.609Z,9.55
2023-05-21T07:41:24.468Z,10.38
2023-05-21T07:44:28.112Z,10.23
2023-05-21T07:47:30.076Z,10.93
2023-05-21T07:50:32.662Z,10.15
2023-05-21T07:53:34.606Z,9.57
2023-05-21T07:56:36.639Z,10.70
2023-05-21T07:59:44.168Z,10.57
2023-05-21T08:02:46.446Z,9.85
2023-05-21T08:05:49.293Z,11.18
2023-05-21T08:08:51.181Z,10.55
2023-05-21T08:11:53.537Z,10.88
2023-05-21T08:14:57.520Z,9.95
2023-05-21T08:17:59.515Z,11.82
2023-05-21T08:21:01.734Z,10.23
2023-05-21T08:24:03.827Z,10.20
2023-05-21T08:27:05.952Z,10.65
2023-05-21T08:30:11.782Z,11.25
2023-05-21T08:33:14.196Z,8.57
2023-05-21T08:36:16.532Z,9.73
2023-05-21T08:39:18.458Z,10.20
2023-05-21T08:42:36.899Z,9.52
2023-05-21T08:45:44.949Z,9.43
2023-05-21T08:48:47.779Z,9.75
2023-05-21T08:51:50.383Z,10.07
2023-05-21T08:54:53.276Z,10.02
2023-05-21T08:57:55.502Z,9.63
2023-05-21T09:00:58.983Z,9.60
2023-05-21T09:04:12.657Z,10.73
2023-05-21T09:07:22.919Z,9.52
2023-05-21T09:10:30.076Z,9.18
2023-05-21T09:13:33.410Z,8.05
2023-05-21T09:16:36.818Z,9.50
2023-05-21T09:19:38.838Z,9.48
2023-05-21T09:22:42.674Z,10.57
2023-05-21T09:25:46.684Z,7.70
2023-05-21T09:28:51.477Z,9.15
2023-05-21T09:31:55.216Z,8.10
2023-05-21T09:35:06.867Z,8.90
2023-05-21T09:38:09.725Z,10.98
2023-05-21T09:41:11.572Z,8.63
2023-05-21T09:44:14.456Z,9.68
2023-05-21T09:47:21.586Z,9.00
2023-05-21T09:50:25.241Z,9.43
2023-05-21T09:53:29.571Z,9.70
2023-05-21T09:56:34.638Z,9.35
2023-05-21T09:59:39.498Z,9.02
2023-05-21T10:05:47.388Z,9.27
2023-05-21T10:08:53.787Z,10.57
2023-05-21T10:11:56.893Z,8.85
2023-05-21T10:15:03.475Z,10.93
2023-05-21T10:18:07.278Z,10.13
2023-05-21T10:21:09.474Z,10.07
2023-05-21T10:24:11.614Z,9.20
2023-05-21T10:27:14.452Z,9.93
2023-05-21T10:30:18.643Z,9.13
2023-05-21T10:33:24.429Z,9.63
2023-05-21T10:36:31.832Z,8.70
2023-05-21T10:39:34.773Z,8.93
2023-05-21T10:43:08.951Z,7.70
2023-05-21T10:46:40.536Z,8.23
2023-05-21T10:49:59.463Z,9.15
2023-05-21T10:53:13.100Z,9.10
2023-05-21T10:56:22.975Z,8.13
2023-05-21T10:59:36.607Z,9.02
2023-05-21T11:02:39.171Z,8.95
2023-05-21T11:05:52.474Z,8.40
2023-05-21T11:08:55.891Z,9.07
2023-05-21T11:11:58.984Z,8.00
2023-05-21T11:15:00.852Z,7.95
2023-05-21T11:18:02.815Z,7.95
2023-05-21T11:21:07.088Z,10.32
2023-05-21T11:24:10.976Z,8.00
2023-05-21T11:27:13.040Z,9.38
2023-05-21T11:30:17.087Z,10.23
2023-05-21T11:33:19.710Z,8.35
2023-05-21T11:36:22.925Z,8.98
2023-05-21T11:39:25.921Z,9.25
2023-05-21T11:42:29.533Z,8.85
2023-05-21T11:45:33.424Z,9.00
2023-05-21T11:48:38.090Z,10.10
2023-05-21T11:51:41.709Z,9.07
2023-05-21T11:54:50.694Z,8.68
2023-05-21T11:57:54.456Z,10.00
2023-05-21T12:00:56.996Z,9.60
2023-05-21T12:03:58.867Z,8.15
2023-05-21T12:07:04.131Z,9.70
2023-05-21T12:10:07.578Z,10.23
2023-05-21T12:13:10.145Z,9.73
2023-05-21T12:16:13.068Z,9.27
2023-05-21T12:19:17.695Z,9.52
2023-05-21T12:22:21.464Z,9.05
2023-05-21T12:25:23.540Z,11.90
2023-05-21T12:28:25.683Z,9.30
2023-05-21T12:31:30.347Z,9.98
2023-05-21T12:34:43.267Z,10.00
2023-05-21T12:37:47.327Z,9.25
2023-05-21T12:40:49.169Z,9.82
2023-05-21T12:43:52.082Z,9.25
2023-05-21T12:46:53.943Z,10.60
2023-05-21T12:50:00.513Z,9.98
2023-05-21T12:53:03.940Z,11.00
2023-05-21T12:56:12.659Z,10.65
2023-05-21T12:59:15.663Z,9.95
2023-05-21T13:02:21.959Z,10.43
2023-05-21T13:05:23.848Z,9.95
2023-05-21T13:08:27.289Z,10.73
2023-05-21T13:11:29.311Z,9.15
2023-05-21T13:14:34.384Z,9.32
2023-05-21T13:17:36.861Z,10.57
2023-05-21T13:20:38.887Z,9.88
2023-05-21T13:23:42.332Z,10.82
2023-05-21T13:26:44.219Z,9.48
2023-05-21T13:29:46.084Z,11.57
2023-05-21T13:32:48.872Z,10.60
2023-05-21T13:35:51.933Z,10.00
2023-05-21T13:38:56.555Z,10.50
2023-05-21T13:41:59.307Z,9.85
2023-05-21T13:45:01.946Z,10.20
2023-05-21T13:48:04.155Z,9.95
2023-05-21T13:51:06.829Z,10.50
2023-05-21T13:54:10.264Z,8.85
2023-05-21T13:57:12.160Z,10.60
2023-05-21T14:00:15.824Z,9.23
2023-05-21T14:03:18.200Z,10.38
2023-05-21T14:06:21.254Z,11.27
2023-05-21T14:09:27.278Z,9.52
2023-05-21T14:12:29.816Z,10.10
2023-05-21T14:15:32.397Z,10.05
2023-05-21T14:18:34.244Z,9.60
2023-05-21T14:21:36.734Z,10.13
2023-05-21T14:24:40.033Z,9.63
2023-05-21T14:27:41.858Z,9.90
2023-05-21T14:30:44.742Z,10.05
2023-05-21T14:33:46.612Z,9.57
2023-05-21T14:36:48.474Z,10.07
2023-05-21T14:39:51.687Z,11.05
2023-05-21T14:42:53.552Z,9.30
2023-05-21T14:45:55.727Z,9.98
2023-05-21T14:49:00.726Z,9.05
2023-05-21T14:52:03.830Z,9.38
2023-05-21T14:55:08.005Z,8.90
2023-05-21T14:58:10.581Z,9.90
2023-05-21T15:01:12.493Z,9.63
2023-05-21T15:04:14.538Z,9.02
2023-05-21T15:07:16.525Z,10.00
2023-05-21T15:10:19.800Z,9.55
2023-05-21T15:13:22.629Z,10.80
2023-05-21T15:16:24.625Z,10.27
2023-05-21T15:19:26.636Z,9.77
2023-05-21T15:22:28.509Z,8.68
2023-05-21T15:25:31.909Z,9.95
2023-05-21T15:28:33.809Z,8.30
2023-05-21T15:31:35.667Z,10.30
2023-05-21T15:34:38.601Z,9.30
2023-05-21T15:37:40.611Z,9.77
2023-05-21T15:40:44.348Z,9.70
2023-05-21T15:43:46.286Z,9.85
2023-05-21T15:46:51.479Z,10.60
2023-05-21T15:49:53.512Z,10.80
2023-05-21T15:52:55.377Z,9.85
2023-05-21T15:55:58.829Z,9.52
2023-05-21T15:59:01.554Z,9.95
2023-05-21T16:02:03.430Z,10.13
2023-05-21T16:05:05.884Z,9.25
2023-05-21T16:08:10.751Z,9.38
2023-05-21T16:14:16.491Z,9.73
2023-05-21T16:17:19.803Z,9.25
2023-05-21T16:20:22.422Z,9.95
2023-05-21T16:23:24.425Z,10.75
2023-05-21T16:26:27.655Z,11.18
2023-05-21T16:29:30.434Z,9.57
2023-05-21T16:32:33.170Z,9.75
2023-05-21T16:35:35.345Z,8.95
2023-05-21T16:38:38.261Z,8.63
2023-05-21T16:41:43.433Z,10.18
2023-05-21T16:44:45.381Z,10.15
2023-05-21T16:47:48.096Z,8.98
2023-05-21T16:50:50.308Z,10.18
2023-05-21T16:53:52.267Z,9.15
2023-05-21T16:56:55.856Z,9.27
2023-05-21T16:59:57.885Z,9.15
2023-05-21T17:03:00.574Z,9.55
2023-05-21T17:06:02.475Z,9.65
2023-05-21T17:09:05.462Z,10.52
2023-05-21T17:12:08.905Z,10.45
2023-05-21T17:15:10.940Z,10.77
2023-05-21T17:18:13.419Z,10.27
2023-05-21T17:21:15.464Z,10.27
2023-05-21T17:24:17.533Z,9.90
2023-05-21T17:27:21.619Z,9.57
2023-05-21T17:30:23.505Z,10.32
2023-05-21T17:33:26.541Z,10.13
2023-05-21T17:36:28.524Z,10.95
2023-05-21T17:39:30.390Z,11.82
2023-05-21T17:42:34.610Z,11.40
2023-05-21T17:45:36.608Z,13.00
2023-05-21T17:48:38.635Z,10.80
2023-05-21T17:51:41.198Z,10.75
2023-05-21T17:54:43.075Z,10.93
2023-05-21T17:57:46.607Z,10.88
2023-05-21T18:00:48.496Z,10.95
2023-05-21T18:03:51.194Z,10.18
2023-05-21T18:06:53.199Z,11.13
2023-05-21T18:09:55.149Z,11.20
2023-05-21T18:12:58.386Z,11.00
2023-05-21T18:16:00.328Z,11.05
2023-05-21T18:19:05.966Z,11.07
2023-05-21T18:22:08.134Z,11.88
2023-05-21T18:25:10.946Z,10.70
2023-05-21T18:28:14.211Z,10.77
2023-05-21T18:31:17.344Z,10.48
2023-05-21T18:34:20.096Z,10.65
2023-05-21T18:37:22.011Z,10.98
2023-05-21T18:40:25.736Z,10.98
2023-05-21T18:43:31.640Z,11.20
2023-05-21T18:46:33.782Z,11.23
2023-05-21T18:49:36.367Z,10.52
2023-05-21T18:52:38.797Z,11.32
2023-05-21T18:55:41.125Z,11.52
2023-05-21T18:58:44.392Z,10.95
2023-05-21T19:01:46.378Z,11.23
2023-05-21T19:04:48.923Z,10.60
2023-05-21T19:07:51.048Z,10.90
2023-05-21T19:10:53.076Z,10.77
2023-05-21T19:14:00.855Z,11.60
2023-05-21T19:17:02.797Z,11.38
2023-05-21T19:20:05.883Z,12.35
2023-05-21T19:23:10.515Z,11.18
2023-05-21T19:26:21.584Z,11.95
2023-05-21T19:29:27.189Z,11.38
2023-05-21T19:32:31.422Z,11.73
2023-05-21T19:35:33.345Z,12.60
2023-05-21T19:38:36.203Z,11.70
2023-05-21T19:41:38.177Z,13.07
2023-05-21T19:44:42.403Z,10.77
2023-05-21T19:47:44.351Z,11.60
2023-05-21T19:50:46.968Z,12.00
2023-05-21T19:53:48.895Z,10.95
2023-05-21T19:56:51.637Z,12.75
2023-05-21T19:59:54.802Z,13.25
2023-05-21T20:02:56.909Z,12.48
2023-05-21T20:05:58.842Z,12.63
2023-05-21T20:09:00.954Z,12.93
2023-05-21T20:12:03.491Z,11.55
2023-05-21T20:15:07.954Z,13.82
2023-05-21T20:18:09.894Z,11.18
2023-05-21T20:21:11.844Z,11.35
2023-05-21T20:24:16.087Z,13.27
2023-05-21T20:27:19.639Z,11.75
2023-05-21T20:30:23.150Z,11.27
2023-05-21T20:33:25.599Z,10.00
2023-05-21T20:36:30.504Z,11.38
2023-05-21T20:39:32.574Z,13.93
2023-05-21T20:42:35.296Z,13.98
2023-05-21T20:45:39.532Z,14.63
2023-05-21T20:48:41.883Z,15.15
2023-05-21T20:51:44.880Z,15.73
2023-05-21T20:54:46.798Z,14.40
2023-05-21T20:57:48.786Z,14.57
2023-05-21T21:00:52.034Z,15.07
2023-05-21T21:03:54.042Z,12.55
2023-05-21T21:06:56.676Z,14.25
2023-05-21T21:09:59.775Z,12.80
2023-05-21T21:13:01.644Z,13.73
2023-05-21T21:16:06.183Z,12.23
2023-05-21T21:19:08.078Z,13.65
2023-05-21T21:22:10.919Z,12.57
2023-05-21T21:25:14.006Z,13.93
2023-05-21T21:28:16.017Z,12.70
2023-05-21T21:31:20.175Z,14.07
2023-05-21T21:34:23.612Z,14.20
2023-05-21T21:37:25.753Z,13.82
2023-05-21T21:40:27.768Z,13.52
2023-05-21T21:43:30.706Z,12.90
2023-05-21T21:46:34.105Z,13.10
2023-05-21T21:49:38.375Z,12.85
2023-05-21T21:52:40.781Z,11.85
2023-05-21T21:55:42.665Z,12.48
2023-05-21T21:58:44.592Z,12.38
2023-05-21T22:01:47.977Z,11.32
2023-05-21T22:04:50.809Z,11.00
2023-05-21T22:07:52.851Z,11.43
2023-05-21T22:10:54.786Z,10.95
2023-05-21T22:13:57.655Z,11.70
2023-05-21T22:17:01.096Z,10.68
2023-05-21T22:20:04.798Z,11.88
2023-05-21T22:23:06.687Z,12.48
2023-05-21T22:26:09.574Z,11.00
2023-05-21T22:29:11.612Z,10.45
2023-05-21T22:32:14.961Z,10.80
2023-05-21T22:35:17.569Z,11.02
2023-05-21T22:38:19.436Z,10.43
2023-05-21T22:41:22.912Z,10.40
2023-05-21T22:44:24.838Z,10.98
2023-05-21T22:47:28.935Z,9.35
2023-05-21T22:50:32.967Z,10.68
2023-05-21T22:53:35.640Z,11.13
2023-05-21T22:56:38.453Z,10.40
2023-05-21T22:59:40.296Z,9.82
2023-05-21T23:02:43.826Z,10.48
2023-05-21T23:05:46.080Z,10.90
2023-05-21T23:08:48.058Z,10.13
2023-05-21T23:11:50.632Z,9.77
2023-05-21T23:14:52.480Z,9.68
2023-05-21T23:17:55.916Z,11.45
2023-05-21T23:20:57.876Z,9.82
2023-05-21T23:23:59.780Z,9.90
2023-05-21T23:27:03.128Z,10.48
2023-05-21T23:30:05.898Z,10.13
2023-05-21T23:33:09.962Z,10.63
2023-05-21T23:36:11.966Z,11.32
2023-05-21T23:39:13.810Z,10.20
2023-05-21T23:42:16.036Z,9.20
2023-05-21T23:45:18.252Z,10.07
2023-05-21T23:48:21.880Z,10.38
2023-05-21T23:51:23.803Z,9.70
2023-05-21T23:54:25.847Z,10.35
2023-05-21T23:57:28.344Z,9.45
